createdAt,value
2023-01-20T00:12:47.456Z,40.38
2023-01-20T00:27:53.312Z,40.95
2023-01-20T00:42:55.430Z,40.58
2023-01-20T00:57:57.386Z,39.92
2023-01-20T01:13:00.625Z,43.00
2023-01-20T01:28:02.583Z,48.80
2023-01-20T01:43:20.985Z,54.35
2023-01-20T01:58:28.429Z,51.17
2023-01-20T02:29:04.919Z,58.10
2023-01-20T02:44:06.826Z,45.58
2023-01-20T02:59:11.178Z,53.40
2023-01-20T03:14:14.675Z,45.15
2023-01-20T03:29:18.424Z,48.30
2023-01-20T03:44:54.008Z,46.85
2023-01-20T03:59:58.037Z,45.80
2023-01-20T04:15:01.218Z,48.67
2023-01-20T04:30:03.244Z,46.63
2023-01-20T04:45:05.632Z,51.00
2023-01-20T05:00:08.602Z,46.35
2023-01-20T05:15:10.966Z,47.30
2023-01-20T05:30:13.348Z,43.10
2023-01-20T05:45:15.638Z,45.83
2023-01-20T06:00:19.042Z,49.03
2023-01-20T06:15:23.764Z,62.38
2023-01-20T06:30:25.831Z,53.70
2023-01-20T06:45:28.856Z,49.08
2023-01-20T07:00:30.989Z,46.83
2023-01-20T07:15:33.108Z,52.60
2023-01-20T07:30:35.193Z,49.08
2023-01-20T07:45:37.341Z,44.60
2023-01-20T08:00:39.566Z,58.22
2023-01-20T08:15:41.637Z,52.20
2023-01-20T08:30:44.414Z,59.15
2023-01-20T08:45:46.723Z,52.72
2023-01-20T09:00:48.667Z,50.15
2023-01-20T09:15:53.718Z,48.78
2023-01-20T09:31:04.563Z,42.30
2023-01-20T09:46:15.675Z,48.13
2023-01-20T10:01:39.050Z,47.15
2023-01-20T10:16:41.015Z,32.75
2023-01-20T10:32:09.601Z,30.10
2023-01-20T10:47:17.616Z,19.42
2023-01-20T11:02:29.179Z,18.92
2023-01-20T11:17:31.216Z,20.25
2023-01-20T11:32:40.285Z,38.42
2023-01-20T11:47:42.284Z,42.85
2023-01-20T12:02:48.514Z,41.25
2023-01-20T12:18:17.679Z,42.33
2023-01-20T12:33:24.342Z,34.42
2023-01-20T12:48:42.854Z,36.67
2023-01-20T13:04:09.141Z,30.55
2023-01-20T13:19:19.912Z,37.58
2023-01-20T13:34:21.812Z,36.40
2023-01-20T13:49:27.754Z,22.65
2023-01-20T14:04:29.687Z,24.45
2023-01-20T14:19:34.828Z,26.77
2023-01-20T14:34:36.793Z,31.60
2023-01-20T14:49:43.460Z,33.13
2023-01-20T15:04:45.555Z,25.25
2023-01-20T15:19:47.618Z,23.67
2023-01-20T15:34:49.555Z,28.55
2023-01-20T15:49:51.754Z,29.45
2023-01-20T16:04:53.727Z,32.88
2023-01-20T16:19:55.644Z,32.38
2023-01-20T16:34:57.654Z,36.53
2023-01-20T16:49:59.663Z,42.33
2023-01-20T17:05:02.423Z,39.40
2023-01-20T17:20:10.254Z,42.60
2023-01-20T17:35:12.253Z,59.08
2023-01-20T17:50:14.467Z,61.03
2023-01-20T18:05:16.690Z,60.70
2023-01-20T18:20:19.320Z,60.08
2023-01-20T18:35:21.276Z,58.47
2023-01-20T18:50:23.394Z,54.20
2023-01-20T19:05:25.512Z,55.42
2023-01-20T19:20:27.514Z,55.38
2023-01-20T19:35:31.667Z,59.35
2023-01-20T19:50:33.672Z,58.20
2023-01-20T20:05:40.771Z,65.68
2023-01-20T20:20:44.694Z,69.40
2023-01-20T20:35:46.775Z,68.00
2023-01-20T20:50:48.922Z,65.40
2023-01-20T21:05:50.888Z,72.13
2023-01-20T21:21:01.061Z,76.05
2023-01-20T21:36:03.389Z,82.90
2023-01-20T21:51:24.411Z,62.53
2023-01-20T22:06:26.498Z,55.67
2023-01-20T22:21:29.489Z,49.65
2023-01-20T22:36:32.197Z,48.80
2023-01-20T22:51:34.192Z,53.03
2023-01-20T23:06:36.746Z,49.00
2023-01-20T23:21:38.785Z,49.38
2023-01-20T23:36:40.712Z,50.03
2023-01-20T23:51:42.694Z,48.90
